sensor_id;sensor_type;location;lat;lon;timestamp;temperature;humidity
18189;DHT22;9219;50.396;8.546;2022-10-22T00:06:44;17.30;99.90
18189;DHT22;9219;50.396;8.546;2022-10-22T00:09:13;17.20;99.90
18189;DHT22;9219;50.396;8.546;2022-10-22T00:11:42;17.20;99.90
18189;DHT22;9219;50.396;8.546;2022-10-22T00:14:09;17.10;99.90
18189;DHT22;9219;50.396;8.546;2022-10-22T00:16:37;16.90;99.90
18189;DHT22;9219;50.396;8.546;2022-10-22T00:19:06;16.90;99.90
18189;DHT22;9219;50.396;8.546;2022-10-22T00:21:34;16.90;99.90
18189;DHT22;9219;50.396;8.546;2022-10-22T00:29:03;16.80;99.90
18189;DHT22;9219;50.396;8.546;2022-10-22T00:31:31;16.80;99.90
18189;DHT22;9219;50.396;8.546;2022-10-22T00:33:58;16.80;99.90
18189;DHT22;9219;50.396;8.546;2022-10-22T00:36:26;16.90;99.90
18189;DHT22;9219;50.396;8.546;2022-10-22T00:38:54;16.80;99.90
18189;DHT22;9219;50.396;8.546;2022-10-22T00:41:21;16.80;99.90
18189;DHT22;9219;50.396;8.546;2022-10-22T00:43:55;16.80;99.90
18189;DHT22;9219;50.396;8.546;2022-10-22T00:59:46;16.70;99.90
18189;DHT22;9219;50.396;8.546;2022-10-22T01:02:14;16.50;99.90
18189;DHT22;9219;50.396;8.546;2022-10-22T01:04:42;16.70;99.90
18189;DHT22;9219;50.396;8.546;2022-10-22T01:07:28;16.90;99.90
18189;DHT22;9219;50.396;8.546;2022-10-22T01:10:19;17.00;99.90
18189;DHT22;9219;50.396;8.546;2022-10-22T01:13:14;17.10;99.90
18189;DHT22;9219;50.396;8.546;2022-10-22T01:15:49;17.10;99.90
18189;DHT22;9219;50.396;8.546;2022-10-22T01:18:21;16.80;99.90
18189;DHT22;9219;50.396;8.546;2022-10-22T01:26:04;16.80;99.90
18189;DHT22;9219;50.396;8.546;2022-10-22T01:28:53;16.80;99.90
18189;DHT22;9219;50.396;8.546;2022-10-22T01:31:23;16.80;99.90
18189;DHT22;9219;50.396;8.546;2022-10-22T01:33:53;16.90;99.90
18189;DHT22;9219;50.396;8.546;2022-10-22T01:36:25;16.80;99.90
18189;DHT22;9219;50.396;8.546;2022-10-22T01:38:55;16.70;99.90
18189;DHT22;9219;50.396;8.546;2022-10-22T01:41:23;16.80;99.90
18189;DHT22;9219;50.396;8.546;2022-10-22T01:49:43;16.80;99.90
18189;DHT22;9219;50.396;8.546;2022-10-22T01:52:37;16.90;99.90
18189;DHT22;9219;50.396;8.546;2022-10-22T01:55:26;16.70;99.90
18189;DHT22;9219;50.396;8.546;2022-10-22T01:58:03;16.80;99.90
18189;DHT22;9219;50.396;8.546;2022-10-22T02:00:33;16.90;99.90
18189;DHT22;9219;50.396;8.546;2022-10-22T02:03:07;17.10;99.90
18189;DHT22;9219;50.396;8.546;2022-10-22T02:05:43;17.10;99.90
18189;DHT22;9219;50.396;8.546;2022-10-22T02:23:48;17.00;99.90
18189;DHT22;9219;50.396;8.546;2022-10-22T02:26:22;16.20;99.90
18189;DHT22;9219;50.396;8.546;2022-10-22T02:28:58;16.30;99.90
18189;DHT22;9219;50.396;8.546;2022-10-22T02:31:30;16.50;99.90
18189;DHT22;9219;50.396;8.546;2022-10-22T02:34:02;16.50;99.90
18189;DHT22;9219;50.396;8.546;2022-10-22T02:36:33;16.90;99.90
18189;DHT22;9219;50.396;8.546;2022-10-22T02:39:05;16.90;99.90
18189;DHT22;9219;50.396;8.546;2022-10-22T02:44:34;16.50;99.90
18189;DHT22;9219;50.396;8.546;2022-10-22T02:47:24;16.20;99.90
18189;DHT22;9219;50.396;8.546;2022-10-22T02:49:52;16.10;99.90
18189;DHT22;9219;50.396;8.546;2022-10-22T02:53:41;15.90;99.90
18189;DHT22;9219;50.396;8.546;2022-10-22T02:56:42;15.60;99.90
18189;DHT22;9219;50.396;8.546;2022-10-22T02:59:16;15.50;99.90
18189;DHT22;9219;50.396;8.546;2022-10-22T03:01:52;15.50;99.90
18189;DHT22;9219;50.396;8.546;2022-10-22T03:04:51;15.50;99.90
18189;DHT22;9219;50.396;8.546;2022-10-22T03:07:19;15.40;99.90
18189;DHT22;9219;50.396;8.546;2022-10-22T03:09:50;15.60;99.90
18189;DHT22;9219;50.396;8.546;2022-10-22T03:17:56;15.90;99.90
18189;DHT22;9219;50.396;8.546;2022-10-22T03:20:23;15.80;99.90
18189;DHT22;9219;50.396;8.546;2022-10-22T03:22:51;15.70;99.90
18189;DHT22;9219;50.396;8.546;2022-10-22T03:25:22;15.60;99.90
18189;DHT22;9219;50.396;8.546;2022-10-22T03:27:51;15.60;99.90
18189;DHT22;9219;50.396;8.546;2022-10-22T03:30:21;15.70;99.90
18189;DHT22;9219;50.396;8.546;2022-10-22T03:32:48;15.80;99.90
18189;DHT22;9219;50.396;8.546;2022-10-22T03:38:14;15.90;99.90
18189;DHT22;9219;50.396;8.546;2022-10-22T03:40:44;15.80;99.90
18189;DHT22;9219;50.396;8.546;2022-10-22T03:43:15;16.00;99.90
18189;DHT22;9219;50.396;8.546;2022-10-22T03:45:43;16.00;99.90
18189;DHT22;9219;50.396;8.546;2022-10-22T03:48:11;15.80;99.90
18189;DHT22;9219;50.396;8.546;2022-10-22T03:50:39;15.90;99.90
18189;DHT22;9219;50.396;8.546;2022-10-22T03:53:09;16.20;99.90
18189;DHT22;9219;50.396;8.546;2022-10-22T03:55:40;16.10;99.90
18189;DHT22;9219;50.396;8.546;2022-10-22T04:05:40;16.00;99.90
18189;DHT22;9219;50.396;8.546;2022-10-22T04:08:07;16.20;99.90
18189;DHT22;9219;50.396;8.546;2022-10-22T04:10:35;16.20;99.90
18189;DHT22;9219;50.396;8.546;2022-10-22T04:13:03;16.30;99.90
18189;DHT22;9219;50.396;8.546;2022-10-22T04:15:30;16.10;99.90
18189;DHT22;9219;50.396;8.546;2022-10-22T04:17:58;16.20;99.90
18189;DHT22;9219;50.396;8.546;2022-10-22T04:20:25;16.30;99.90
18189;DHT22;9219;50.396;8.546;2022-10-22T04:25:58;16.10;99.90
18189;DHT22;9219;50.396;8.546;2022-10-22T04:28:26;16.00;99.90
18189;DHT22;9219;50.396;8.546;2022-10-22T04:30:54;15.90;99.90
18189;DHT22;9219;50.396;8.546;2022-10-22T04:33:22;15.90;99.90
18189;DHT22;9219;50.396;8.546;2022-10-22T04:35:50;16.00;99.90
18189;DHT22;9219;50.396;8.546;2022-10-22T04:38:17;16.10;99.90
18189;DHT22;9219;50.396;8.546;2022-10-22T04:40:45;16.10;99.90
18189;DHT22;9219;50.396;8.546;2022-10-22T04:48:15;16.20;99.90
18189;DHT22;9219;50.396;8.546;2022-10-22T04:50:44;16.00;99.90
18189;DHT22;9219;50.396;8.546;2022-10-22T04:53:11;15.90;99.90
18189;DHT22;9219;50.396;8.546;2022-10-22T04:55:39;15.80;99.90
18189;DHT22;9219;50.396;8.546;2022-10-22T04:58:07;15.70;99.90
18189;DHT22;9219;50.396;8.546;2022-10-22T05:00:35;15.70;99.90
18189;DHT22;9219;50.396;8.546;2022-10-22T05:03:03;15.70;99.90
18189;DHT22;9219;50.396;8.546;2022-10-22T05:06:13;15.70;99.90
18189;DHT22;9219;50.396;8.546;2022-10-22T05:08:40;16.00;99.90
18189;DHT22;9219;50.396;8.546;2022-10-22T05:11:13;16.10;99.90
18189;DHT22;9219;50.396;8.546;2022-10-22T05:13:41;16.10;99.90
18189;DHT22;9219;50.396;8.546;2022-10-22T05:16:09;16.10;99.90
18189;DHT22;9219;50.396;8.546;2022-10-22T05:18:37;16.10;99.90
18189;DHT22;9219;50.396;8.546;2022-10-22T05:21:08;15.90;99.90
18189;DHT22;9219;50.396;8.546;2022-10-22T05:23:38;15.90;99.90
18189;DHT22;9219;50.396;8.546;2022-10-22T05:41:33;16.00;99.90
18189;DHT22;9219;50.396;8.546;2022-10-22T05:44:02;16.10;99.90
18189;DHT22;9219;50.396;8.546;2022-10-22T05:46:34;16.10;99.90
18189;DHT22;9219;50.396;8.546;2022-10-22T05:49:04;16.20;99.90
18189;DHT22;9219;50.396;8.546;2022-10-22T05:51:34;16.30;99.90
18189;DHT22;9219;50.396;8.546;2022-10-22T05:54:05;16.40;99.90
18189;DHT22;9219;50.396;8.546;2022-10-22T05:56:35;16.40;99.90
18189;DHT22;9219;50.396;8.546;2022-10-22T06:12:23;16.40;99.90
18189;DHT22;9219;50.396;8.546;2022-10-22T06:14:51;16.00;99.90
18189;DHT22;9219;50.396;8.546;2022-10-22T06:17:19;16.20;99.90
18189;DHT22;9219;50.396;8.546;2022-10-22T06:19:46;16.10;99.90
18189;DHT22;9219;50.396;8.546;2022-10-22T06:22:14;16.20;99.90
18189;DHT22;9219;50.396;8.546;2022-10-22T06:24:42;16.30;99.90
18189;DHT22;9219;50.396;8.546;2022-10-22T06:27:11;16.30;99.90
18189;DHT22;9219;50.396;8.546;2022-10-22T06:34:48;16.30;99.90
18189;DHT22;9219;50.396;8.546;2022-10-22T06:37:16;16.30;99.90
18189;DHT22;9219;50.396;8.546;2022-10-22T06:39:45;16.30;99.90
18189;DHT22;9219;50.396;8.546;2022-10-22T06:42:13;16.10;99.90
18189;DHT22;9219;50.396;8.546;2022-10-22T06:44:42;15.90;99.90
18189;DHT22;9219;50.396;8.546;2022-10-22T06:47:10;15.80;99.90
18189;DHT22;9219;50.396;8.546;2022-10-22T06:49:38;15.80;99.90
18189;DHT22;9219;50.396;8.546;2022-10-22T06:57:13;15.90;99.90
18189;DHT22;9219;50.396;8.546;2022-10-22T06:59:43;15.90;99.90
18189;DHT22;9219;50.396;8.546;2022-10-22T07:02:10;15.90;99.90
18189;DHT22;9219;50.396;8.546;2022-10-22T07:04:38;15.80;99.90
18189;DHT22;9219;50.396;8.546;2022-10-22T07:07:11;15.80;99.90
18189;DHT22;9219;50.396;8.546;2022-10-22T07:09:40;15.80;99.90
18189;DHT22;9219;50.396;8.546;2022-10-22T07:12:10;15.80;99.90
18189;DHT22;9219;50.396;8.546;2022-10-22T07:19:47;15.80;99.90
18189;DHT22;9219;50.396;8.546;2022-10-22T07:22:17;15.50;99.90
18189;DHT22;9219;50.396;8.546;2022-10-22T07:24:45;15.50;99.90
18189;DHT22;9219;50.396;8.546;2022-10-22T07:27:14;15.40;99.90
18189;DHT22;9219;50.396;8.546;2022-10-22T07:29:42;15.50;99.90
18189;DHT22;9219;50.396;8.546;2022-10-22T07:32:09;15.60;99.90
18189;DHT22;9219;50.396;8.546;2022-10-22T07:34:38;15.60;99.90
18189;DHT22;9219;50.396;8.546;2022-10-22T07:52:40;15.70;99.90
18189;DHT22;9219;50.396;8.546;2022-10-22T07:55:20;16.20;99.90
18189;DHT22;9219;50.396;8.546;2022-10-22T07:57:48;16.40;99.90
18189;DHT22;9219;50.396;8.546;2022-10-22T08:00:16;16.60;99.90
18189;DHT22;9219;50.396;8.546;2022-10-22T08:02:49;16.70;99.90
18189;DHT22;9219;50.396;8.546;2022-10-22T08:05:17;16.90;99.90
18189;DHT22;9219;50.396;8.546;2022-10-22T08:07:46;17.10;99.90
18189;DHT22;9219;50.396;8.546;2022-10-22T08:14:36;17.00;99.90
18189;DHT22;9219;50.396;8.546;2022-10-22T08:17:04;17.20;99.90
18189;DHT22;9219;50.396;8.546;2022-10-22T08:19:36;17.60;99.90
18189;DHT22;9219;50.396;8.546;2022-10-22T08:22:03;17.60;99.90
18189;DHT22;9219;50.396;8.546;2022-10-22T08:24:33;17.70;99.90
18189;DHT22;9219;50.396;8.546;2022-10-22T08:27:05;18.00;99.90
18189;DHT22;9219;50.396;8.546;2022-10-22T08:29:33;18.10;99.90
18189;DHT22;9219;50.396;8.546;2022-10-22T08:32:02;18.00;99.90
18189;DHT22;9219;50.396;8.546;2022-10-22T08:39:07;18.20;99.90
18189;DHT22;9219;50.396;8.546;2022-10-22T08:41:41;18.10;99.90
18189;DHT22;9219;50.396;8.546;2022-10-22T08:50:29;18.40;99.90
18189;DHT22;9219;50.396;8.546;2022-10-22T08:53:02;18.30;99.90
18189;DHT22;9219;50.396;8.546;2022-10-22T08:55:38;18.40;99.90
18189;DHT22;9219;50.396;8.546;2022-10-22T09:01:02;18.50;99.90
18189;DHT22;9219;50.396;8.546;2022-10-22T09:03:40;18.50;99.90
18189;DHT22;9219;50.396;8.546;2022-10-22T09:06:12;18.50;99.90
18189;DHT22;9219;50.396;8.546;2022-10-22T09:08:46;18.70;99.90
18189;DHT22;9219;50.396;8.546;2022-10-22T09:11:26;18.50;99.90
18189;DHT22;9219;50.396;8.546;2022-10-22T09:13:54;18.40;99.90
18189;DHT22;9219;50.396;8.546;2022-10-22T09:16:33;18.60;99.90
18189;DHT22;9219;50.396;8.546;2022-10-22T09:19:12;18.60;99.90
18189;DHT22;9219;50.396;8.546;2022-10-22T09:27:08;19.00;99.90
18189;DHT22;9219;50.396;8.546;2022-10-22T09:29:39;19.30;99.90
18189;DHT22;9219;50.396;8.546;2022-10-22T09:32:09;19.40;99.90
18189;DHT22;9219;50.396;8.546;2022-10-22T09:34:38;19.40;99.90
18189;DHT22;9219;50.396;8.546;2022-10-22T09:37:08;19.40;99.90
18189;DHT22;9219;50.396;8.546;2022-10-22T09:39:42;19.60;99.90
18189;DHT22;9219;50.396;8.546;2022-10-22T09:42:16;19.40;99.90
18189;DHT22;9219;50.396;8.546;2022-10-22T09:49:49;19.60;99.90
18189;DHT22;9219;50.396;8.546;2022-10-22T09:52:26;19.80;99.90
18189;DHT22;9219;50.396;8.546;2022-10-22T09:54:56;19.00;99.90
18189;DHT22;9219;50.396;8.546;2022-10-22T09:57:24;19.10;99.90
18189;DHT22;9219;50.396;8.546;2022-10-22T09:59:54;19.40;99.90
18189;DHT22;9219;50.396;8.546;2022-10-22T10:02:26;19.30;99.90
18189;DHT22;9219;50.396;8.546;2022-10-22T10:05:17;19.30;99.90
18189;DHT22;9219;50.396;8.546;2022-10-22T10:07:45;19.40;99.90
18189;DHT22;9219;50.396;8.546;2022-10-22T10:15:14;20.00;99.90
18189;DHT22;9219;50.396;8.546;2022-10-22T10:17:58;20.20;99.90
18189;DHT22;9219;50.396;8.546;2022-10-22T10:20:45;20.00;99.90
18189;DHT22;9219;50.396;8.546;2022-10-22T10:23:22;19.80;99.90
18189;DHT22;9219;50.396;8.546;2022-10-22T10:25:59;19.80;99.90
18189;DHT22;9219;50.396;8.546;2022-10-22T10:28:54;19.70;99.90
18189;DHT22;9219;50.396;8.546;2022-10-22T10:31:40;19.70;99.90
18189;DHT22;9219;50.396;8.546;2022-10-22T10:37:24;20.00;99.90
18189;DHT22;9219;50.396;8.546;2022-10-22T10:40:13;19.80;99.90
18189;DHT22;9219;50.396;8.546;2022-10-22T10:42:45;19.90;99.90
18189;DHT22;9219;50.396;8.546;2022-10-22T10:45:17;20.00;99.90
18189;DHT22;9219;50.396;8.546;2022-10-22T10:51:02;20.20;99.90
18189;DHT22;9219;50.396;8.546;2022-10-22T11:05:31;20.50;99.90
18189;DHT22;9219;50.396;8.546;2022-10-22T11:08:04;20.40;99.90
18189;DHT22;9219;50.396;8.546;2022-10-22T11:10:47;20.30;99.90
18189;DHT22;9219;50.396;8.546;2022-10-22T11:13:26;20.30;99.90
18189;DHT22;9219;50.396;8.546;2022-10-22T11:16:02;20.10;99.90
18189;DHT22;9219;50.396;8.546;2022-10-22T11:18:35;20.40;99.90
18189;DHT22;9219;50.396;8.546;2022-10-22T11:21:12;20.40;99.90
18189;DHT22;9219;50.396;8.546;2022-10-22T11:39:31;20.10;99.90
18189;DHT22;9219;50.396;8.546;2022-10-22T11:42:05;20.10;99.90
18189;DHT22;9219;50.396;8.546;2022-10-22T11:44:47;20.10;99.90
18189;DHT22;9219;50.396;8.546;2022-10-22T11:47:23;19.90;99.90
18189;DHT22;9219;50.396;8.546;2022-10-22T11:49:58;20.10;99.90
18189;DHT22;9219;50.396;8.546;2022-10-22T11:52:37;20.10;99.90
18189;DHT22;9219;50.396;8.546;2022-10-22T11:58:48;19.50;99.90
18189;DHT22;9219;50.396;8.546;2022-10-22T12:01:26;19.50;99.90
18189;DHT22;9219;50.396;8.546;2022-10-22T12:04:18;19.50;99.90
18189;DHT22;9219;50.396;8.546;2022-10-22T12:06:57;19.50;99.90
18189;DHT22;9219;50.396;8.546;2022-10-22T12:09:28;19.40;99.90
18189;DHT22;9219;50.396;8.546;2022-10-22T12:12:04;19.40;99.90
18189;DHT22;9219;50.396;8.546;2022-10-22T12:14:51;19.60;99.90
18189;DHT22;9219;50.396;8.546;2022-10-22T12:33:28;19.60;99.90
18189;DHT22;9219;50.396;8.546;2022-10-22T12:36:15;19.70;99.90
18189;DHT22;9219;50.396;8.546;2022-10-22T12:38:59;19.40;99.90
18189;DHT22;9219;50.396;8.546;2022-10-22T12:41:37;19.10;99.90
18189;DHT22;9219;50.396;8.546;2022-10-22T12:44:14;18.60;99.90
18189;DHT22;9219;50.396;8.546;2022-10-22T12:46:50;18.30;99.90
18189;DHT22;9219;50.396;8.546;2022-10-22T12:52:26;18.10;99.90
18189;DHT22;9219;50.396;8.546;2022-10-22T12:55:00;17.60;99.90
18189;DHT22;9219;50.396;8.546;2022-10-22T12:57:39;17.60;99.90
18189;DHT22;9219;50.396;8.546;2022-10-22T13:06:12;18.10;99.90
18189;DHT22;9219;50.396;8.546;2022-10-22T13:09:17;18.10;99.90
18189;DHT22;9219;50.396;8.546;2022-10-22T13:12:01;17.50;99.90
18189;DHT22;9219;50.396;8.546;2022-10-22T13:14:34;17.50;99.90
18189;DHT22;9219;50.396;8.546;2022-10-22T13:17:11;17.30;99.90
18189;DHT22;9219;50.396;8.546;2022-10-22T13:19:46;17.20;99.90
18189;DHT22;9219;50.396;8.546;2022-10-22T13:22:31;17.20;99.90
18189;DHT22;9219;50.396;8.546;2022-10-22T13:30:33;17.30;99.90
18189;DHT22;9219;50.396;8.546;2022-10-22T13:36:40;17.50;99.90
18189;DHT22;9219;50.396;8.546;2022-10-22T13:43:06;17.90;99.90
18189;DHT22;9219;50.396;8.546;2022-10-22T13:45:39;18.00;99.90
18189;DHT22;9219;50.396;8.546;2022-10-22T13:48:13;17.90;99.90
18189;DHT22;9219;50.396;8.546;2022-10-22T13:51:45;17.90;99.90
18189;DHT22;9219;50.396;8.546;2022-10-22T13:54:43;18.30;99.90
18189;DHT22;9219;50.396;8.546;2022-10-22T13:57:37;18.30;99.90
18189;DHT22;9219;50.396;8.546;2022-10-22T14:00:24;18.40;99.90
18189;DHT22;9219;50.396;8.546;2022-10-22T14:09:38;18.30;99.90
18189;DHT22;9219;50.396;8.546;2022-10-22T14:12:19;18.30;99.90
18189;DHT22;9219;50.396;8.546;2022-10-22T14:14:46;18.20;99.90
18189;DHT22;9219;50.396;8.546;2022-10-22T14:17:29;18.20;99.90
18189;DHT22;9219;50.396;8.546;2022-10-22T14:20:08;17.90;99.90
18189;DHT22;9219;50.396;8.546;2022-10-22T14:22:53;17.90;99.90
18189;DHT22;9219;50.396;8.546;2022-10-22T14:29:32;18.40;99.90
18189;DHT22;9219;50.396;8.546;2022-10-22T14:36:15;18.40;99.90
18189;DHT22;9219;50.396;8.546;2022-10-22T14:38:48;18.50;99.90
18189;DHT22;9219;50.396;8.546;2022-10-22T14:48:20;18.70;99.90
18189;DHT22;9219;50.396;8.546;2022-10-22T14:51:12;18.90;99.90
18189;DHT22;9219;50.396;8.546;2022-10-22T14:58:12;19.00;99.90
18189;DHT22;9219;50.396;8.546;2022-10-22T15:36:17;19.30;99.90
18189;DHT22;9219;50.396;8.546;2022-10-22T15:39:09;19.00;99.90
18189;DHT22;9219;50.396;8.546;2022-10-22T15:41:40;19.20;99.90
18189;DHT22;9219;50.396;8.546;2022-10-22T15:44:15;19.10;99.90
18189;DHT22;9219;50.396;8.546;2022-10-22T15:46:47;19.00;99.90
18189;DHT22;9219;50.396;8.546;2022-10-22T15:49:26;18.90;99.90
18189;DHT22;9219;50.396;8.546;2022-10-22T15:57:19;18.80;99.90
18189;DHT22;9219;50.396;8.546;2022-10-22T15:59:46;18.90;99.90
18189;DHT22;9219;50.396;8.546;2022-10-22T16:02:17;18.90;99.90
18189;DHT22;9219;50.396;8.546;2022-10-22T16:04:45;18.90;99.90
18189;DHT22;9219;50.396;8.546;2022-10-22T16:07:14;18.90;99.90
18189;DHT22;9219;50.396;8.546;2022-10-22T16:09:48;18.80;99.90
18189;DHT22;9219;50.396;8.546;2022-10-22T16:12:15;18.80;99.90
18189;DHT22;9219;50.396;8.546;2022-10-22T16:18:47;18.90;99.90
18189;DHT22;9219;50.396;8.546;2022-10-22T16:21:14;18.80;99.90
18189;DHT22;9219;50.396;8.546;2022-10-22T16:23:42;18.60;99.90
18189;DHT22;9219;50.396;8.546;2022-10-22T16:26:11;18.60;99.90
18189;DHT22;9219;50.396;8.546;2022-10-22T16:28:40;18.60;99.90
18189;DHT22;9219;50.396;8.546;2022-10-22T16:31:09;18.70;99.90
18189;DHT22;9219;50.396;8.546;2022-10-22T16:33:40;18.60;99.90
18189;DHT22;9219;50.396;8.546;2022-10-22T16:49:49;18.60;99.90
18189;DHT22;9219;50.396;8.546;2022-10-22T16:52:21;18.20;99.90
18189;DHT22;9219;50.396;8.546;2022-10-22T16:54:50;18.20;99.90
18189;DHT22;9219;50.396;8.546;2022-10-22T16:57:17;18.20;99.90
18189;DHT22;9219;50.396;8.546;2022-10-22T16:59:46;18.40;99.90
18189;DHT22;9219;50.396;8.546;2022-10-22T17:02:15;18.20;99.90
18189;DHT22;9219;50.396;8.546;2022-10-22T17:04:44;18.10;99.90
18189;DHT22;9219;50.396;8.546;2022-10-22T19:03:16;17.20;99.90
18189;DHT22;9219;50.396;8.546;2022-10-22T19:07:22;17.10;99.90
18189;DHT22;9219;50.396;8.546;2022-10-22T19:31:18;17.10;99.90
18189;DHT22;9219;50.396;8.546;2022-10-22T19:33:52;17.10;99.90
18189;DHT22;9219;50.396;8.546;2022-10-22T19:36:25;17.00;99.90
18189;DHT22;9219;50.396;8.546;2022-10-22T19:39:02;16.90;99.90
18189;DHT22;9219;50.396;8.546;2022-10-22T19:41:36;16.90;99.90
18189;DHT22;9219;50.396;8.546;2022-10-22T19:44:11;17.00;99.90
18189;DHT22;9219;50.396;8.546;2022-10-22T19:46:45;17.10;99.90
18189;DHT22;9219;50.396;8.546;2022-10-22T19:54:25;17.20;99.90
18189;DHT22;9219;50.396;8.546;2022-10-22T19:57:00;17.10;99.90
18189;DHT22;9219;50.396;8.546;2022-10-22T19:59:35;17.10;99.90
18189;DHT22;9219;50.396;8.546;2022-10-22T20:02:05;17.00;99.90
18189;DHT22;9219;50.396;8.546;2022-10-22T20:04:35;17.00;99.90
18189;DHT22;9219;50.396;8.546;2022-10-22T20:07:06;17.10;99.90
18189;DHT22;9219;50.396;8.546;2022-10-22T20:09:41;16.90;99.90
18189;DHT22;9219;50.396;8.546;2022-10-22T20:17:19;17.00;99.90
18189;DHT22;9219;50.396;8.546;2022-10-22T20:19:51;16.80;99.90
18189;DHT22;9219;50.396;8.546;2022-10-22T20:22:20;16.90;99.90
18189;DHT22;9219;50.396;8.546;2022-10-22T20:24:50;16.80;99.90
18189;DHT22;9219;50.396;8.546;2022-10-22T20:27:19;16.90;99.90
18189;DHT22;9219;50.396;8.546;2022-10-22T20:29:47;16.80;99.90
18189;DHT22;9219;50.396;8.546;2022-10-22T20:32:18;16.70;99.90
18189;DHT22;9219;50.396;8.546;2022-10-22T20:40:07;16.70;99.90
18189;DHT22;9219;50.396;8.546;2022-10-22T20:42:38;16.90;99.90
18189;DHT22;9219;50.396;8.546;2022-10-22T20:45:10;16.80;99.90
18189;DHT22;9219;50.396;8.546;2022-10-22T20:47:41;17.00;99.90
18189;DHT22;9219;50.396;8.546;2022-10-22T20:50:19;17.00;99.90
18189;DHT22;9219;50.396;8.546;2022-10-22T20:52:52;17.00;99.90
18189;DHT22;9219;50.396;8.546;2022-10-22T20:55:22;16.90;99.90
18189;DHT22;9219;50.396;8.546;2022-10-22T21:00:35;16.80;99.90
18189;DHT22;9219;50.396;8.546;2022-10-22T21:03:05;16.80;99.90
18189;DHT22;9219;50.396;8.546;2022-10-22T21:05:35;16.80;99.90
18189;DHT22;9219;50.396;8.546;2022-10-22T21:08:02;16.70;99.90
18189;DHT22;9219;50.396;8.546;2022-10-22T21:10:34;16.70;99.90
18189;DHT22;9219;50.396;8.546;2022-10-22T21:13:06;16.70;99.90
18189;DHT22;9219;50.396;8.546;2022-10-22T21:15:38;16.70;99.90
18189;DHT22;9219;50.396;8.546;2022-10-22T21:34:05;16.70;99.90
18189;DHT22;9219;50.396;8.546;2022-10-22T21:36:38;17.00;99.90
18189;DHT22;9219;50.396;8.546;2022-10-22T21:39:06;17.10;99.90
18189;DHT22;9219;50.396;8.546;2022-10-22T21:41:38;17.40;99.90
18189;DHT22;9219;50.396;8.546;2022-10-22T21:44:06;17.40;99.90
18189;DHT22;9219;50.396;8.546;2022-10-22T21:46:35;17.50;99.90
18189;DHT22;9219;50.396;8.546;2022-10-22T21:49:04;17.50;99.90
18189;DHT22;9219;50.396;8.546;2022-10-22T22:07:01;17.40;99.90
18189;DHT22;9219;50.396;8.546;2022-10-22T22:09:30;17.50;99.90
18189;DHT22;9219;50.396;8.546;2022-10-22T22:12:00;17.60;99.90
18189;DHT22;9219;50.396;8.546;2022-10-22T22:14:30;17.70;99.90
18189;DHT22;9219;50.396;8.546;2022-10-22T22:17:00;17.70;99.90
18189;DHT22;9219;50.396;8.546;2022-10-22T22:19:39;17.70;99.90
18189;DHT22;9219;50.396;8.546;2022-10-22T22:22:17;17.80;99.90
18189;DHT22;9219;50.396;8.546;2022-10-22T22:25:22;17.90;99.90
18189;DHT22;9219;50.396;8.546;2022-10-22T22:27:59;17.80;99.90
18189;DHT22;9219;50.396;8.546;2022-10-22T22:38:18;17.50;99.90
18189;DHT22;9219;50.396;8.546;2022-10-22T22:40:49;17.60;99.90
18189;DHT22;9219;50.396;8.546;2022-10-22T22:43:18;17.40;99.90
18189;DHT22;9219;50.396;8.546;2022-10-22T22:45:46;17.50;99.90
18189;DHT22;9219;50.396;8.546;2022-10-22T22:48:14;17.40;99.90
18189;DHT22;9219;50.396;8.546;2022-10-22T22:50:41;17.30;99.90
18189;DHT22;9219;50.396;8.546;2022-10-22T22:53:10;17.30;99.90
18189;DHT22;9219;50.396;8.546;2022-10-22T22:55:39;17.20;99.90
18189;DHT22;9219;50.396;8.546;2022-10-22T23:03:12;17.10;99.90
18189;DHT22;9219;50.396;8.546;2022-10-22T23:05:40;17.00;99.90
18189;DHT22;9219;50.396;8.546;2022-10-22T23:08:08;16.90;99.90
18189;DHT22;9219;50.396;8.546;2022-10-22T23:10:37;16.90;99.90
18189;DHT22;9219;50.396;8.546;2022-10-22T23:13:04;16.90;99.90
18189;DHT22;9219;50.396;8.546;2022-10-22T23:15:32;16.90;99.90
18189;DHT22;9219;50.396;8.546;2022-10-22T23:18:00;16.80;99.90
18189;DHT22;9219;50.396;8.546;2022-10-22T23:23:13;16.70;99.90
18189;DHT22;9219;50.396;8.546;2022-10-22T23:25:41;16.60;99.90
18189;DHT22;9219;50.396;8.546;2022-10-22T23:28:12;16.60;99.90
18189;DHT22;9219;50.396;8.546;2022-10-22T23:30:43;16.50;99.90
18189;DHT22;9219;50.396;8.546;2022-10-22T23:33:11;16.50;99.90
18189;DHT22;9219;50.396;8.546;2022-10-22T23:35:39;16.50;99.90
18189;DHT22;9219;50.396;8.546;2022-10-22T23:38:07;16.40;99.90
18189;DHT22;9219;50.396;8.546;2022-10-22T23:43:38;16.40;99.90
18189;DHT22;9219;50.396;8.546;2022-10-22T23:46:08;16.40;99.90
18189;DHT22;9219;50.396;8.546;2022-10-22T23:48:39;16.40;99.90
18189;DHT22;9219;50.396;8.546;2022-10-22T23:51:14;16.50;99.90
18189;DHT22;9219;50.396;8.546;2022-10-22T23:53:43;16.40;99.90
18189;DHT22;9219;50.396;8.546;2022-10-22T23:56:14;16.60;99.90
18189;DHT22;9219;50.396;8.546;2022-10-22T23:58:48;16.50;99.90
